sensor_id;sensor_type;location;lat;lon;timestamp;noise_LAeq;noise_LA_min;noise_LA_max;noise_LA01;noise_LA95
73663;Laerm;61956;52.540;13.382;2023-04-03T00:01:45;54.66;49.89;67.03;;
73663;Laerm;61956;52.540;13.382;2023-04-03T00:04:14;52.91;49.15;57.91;;
73663;Laerm;61956;52.540;13.382;2023-04-03T00:06:46;52.64;49.24;57.63;;
73663;Laerm;61956;52.540;13.382;2023-04-03T00:09:15;52.93;49.36;58.06;;
73663;Laerm;61956;52.540;13.382;2023-04-03T00:11:45;52.93;49.63;57.48;;
73663;Laerm;61956;52.540;13.382;2023-04-03T00:14:14;52.60;49.13;56.65;;
73663;Laerm;61956;52.540;13.382;2023-04-03T00:16:44;55.62;49.39;66.08;;
73663;Laerm;61956;52.540;13.382;2023-04-03T00:19:13;52.73;49.53;57.18;;
73663;Laerm;61956;52.540;13.382;2023-04-03T00:21:44;52.69;49.54;56.78;;
73663;Laerm;61956;52.540;13.382;2023-04-03T00:24:14;52.24;49.33;58.02;;
73663;Laerm;61956;52.540;13.382;2023-04-03T00:26:43;52.28;49.29;57.15;;
73663;Laerm;61956;52.540;13.382;2023-04-03T00:29:13;52.80;49.40;60.13;;
73663;Laerm;61956;52.540;13.382;2023-04-03T00:31:42;52.67;49.32;57.65;;
73663;Laerm;61956;52.540;13.382;2023-04-03T00:34:11;52.86;49.45;57.81;;
73663;Laerm;61956;52.540;13.382;2023-04-03T00:36:41;53.26;49.84;58.32;;
73663;Laerm;61956;52.540;13.382;2023-04-03T00:39:13;53.18;50.12;57.61;;
73663;Laerm;61956;52.540;13.382;2023-04-03T00:41:42;52.93;49.64;57.71;;
73663;Laerm;61956;52.540;13.382;2023-04-03T00:47:27;52.56;49.42;56.33;;
73663;Laerm;61956;52.540;13.382;2023-04-03T00:49:58;52.74;49.27;57.48;;
73663;Laerm;61956;52.540;13.382;2023-04-03T00:52:30;53.79;49.84;58.22;;
73663;Laerm;61956;52.540;13.382;2023-04-03T00:55:07;54.37;51.75;60.83;;
73663;Laerm;61956;52.540;13.382;2023-04-03T00:57:38;54.49;51.90;57.89;;
73663;Laerm;61956;52.540;13.382;2023-04-03T01:00:11;54.51;52.02;57.81;;
73663;Laerm;61956;52.540;13.382;2023-04-03T01:02:41;54.56;52.11;57.65;;
73663;Laerm;61956;52.540;13.382;2023-04-03T01:05:15;54.74;52.06;58.32;;
73663;Laerm;61956;52.540;13.382;2023-04-03T01:07:46;53.70;49.62;62.66;;
73663;Laerm;61956;52.540;13.382;2023-04-03T01:10:19;52.75;49.60;64.73;;
73663;Laerm;61956;52.540;13.382;2023-04-03T01:12:50;53.07;49.49;66.86;;
73663;Laerm;61956;52.540;13.382;2023-04-03T01:15:24;52.99;50.11;58.32;;
73663;Laerm;61956;52.540;13.382;2023-04-03T01:17:57;53.01;50.68;56.76;;
73663;Laerm;61956;52.540;13.382;2023-04-03T01:21:17;52.89;49.76;56.90;;
73663;Laerm;61956;52.540;13.382;2023-04-03T01:24:11;52.86;50.07;56.87;;
73663;Laerm;61956;52.540;13.382;2023-04-03T01:26:48;52.75;50.24;56.16;;
73663;Laerm;61956;52.540;13.382;2023-04-03T01:29:18;53.21;50.29;58.12;;
73663;Laerm;61956;52.540;13.382;2023-04-03T01:31:54;53.18;50.22;57.20;;
73663;Laerm;61956;52.540;13.382;2023-04-03T01:34:25;53.25;50.24;58.48;;
73663;Laerm;61956;52.540;13.382;2023-04-03T01:36:55;53.24;50.37;57.54;;
73663;Laerm;61956;52.540;13.382;2023-04-03T01:39:24;52.98;50.26;57.85;;
73663;Laerm;61956;52.540;13.382;2023-04-03T01:41:53;52.73;49.72;60.76;;
73663;Laerm;61956;52.540;13.382;2023-04-03T01:44:33;52.95;49.71;56.93;;
73663;Laerm;61956;52.540;13.382;2023-04-03T01:47:06;52.74;49.98;56.01;;
73663;Laerm;61956;52.540;13.382;2023-04-03T01:49:37;52.92;49.83;58.67;;
73663;Laerm;61956;52.540;13.382;2023-04-03T01:52:06;53.37;50.22;57.62;;
73663;Laerm;61956;52.540;13.382;2023-04-03T01:54:35;53.31;50.20;57.18;;
73663;Laerm;61956;52.540;13.382;2023-04-03T01:57:05;53.33;50.17;58.01;;
73663;Laerm;61956;52.540;13.382;2023-04-03T01:59:35;53.53;50.17;58.20;;
73663;Laerm;61956;52.540;13.382;2023-04-03T02:02:07;53.63;50.14;58.24;;
73663;Laerm;61956;52.540;13.382;2023-04-03T02:04:38;53.34;50.23;57.84;;
73663;Laerm;61956;52.540;13.382;2023-04-03T02:07:07;53.26;50.48;59.22;;
73663;Laerm;61956;52.540;13.382;2023-04-03T02:09:36;53.12;50.54;59.26;;
73663;Laerm;61956;52.540;13.382;2023-04-03T02:12:06;53.06;50.44;57.72;;
73663;Laerm;61956;52.540;13.382;2023-04-03T02:17:07;53.97;49.37;63.84;;
73663;Laerm;61956;52.540;13.382;2023-04-03T02:19:36;53.64;49.60;59.00;;
73663;Laerm;61956;52.540;13.382;2023-04-03T02:22:06;54.30;49.59;62.80;;
73663;Laerm;61956;52.540;13.382;2023-04-03T02:24:35;57.82;49.91;66.18;;
73663;Laerm;61956;52.540;13.382;2023-04-03T02:27:05;59.73;50.45;65.94;;
73663;Laerm;61956;52.540;13.382;2023-04-03T02:29:34;59.34;55.67;64.30;;
73663;Laerm;61956;52.540;13.382;2023-04-03T02:32:07;59.24;57.07;64.13;;
73663;Laerm;61956;52.540;13.382;2023-04-03T02:34:37;59.27;57.21;64.28;;
73663;Laerm;61956;52.540;13.382;2023-04-03T02:37:07;59.15;57.09;64.38;;
73663;Laerm;61956;52.540;13.382;2023-04-03T02:39:36;59.20;57.06;64.17;;
73663;Laerm;61956;52.540;13.382;2023-04-03T02:42:06;58.57;51.12;66.14;;
73663;Laerm;61956;52.540;13.382;2023-04-03T02:44:35;58.28;51.75;67.65;;
73663;Laerm;61956;52.540;13.382;2023-04-03T02:47:07;58.27;51.68;69.54;;
73663;Laerm;61956;52.540;13.382;2023-04-03T02:49:36;59.03;49.29;70.01;;
73663;Laerm;61956;52.540;13.382;2023-04-03T02:52:06;58.09;51.12;69.50;;
73663;Laerm;61956;52.540;13.382;2023-04-03T02:54:35;55.44;51.82;62.91;;
73663;Laerm;61956;52.540;13.382;2023-04-03T02:57:07;55.20;51.57;60.42;;
73663;Laerm;61956;52.540;13.382;2023-04-03T02:59:38;55.10;52.10;59.76;;
73663;Laerm;61956;52.540;13.382;2023-04-03T03:02:12;57.23;52.03;65.37;;
73663;Laerm;61956;52.540;13.382;2023-04-03T03:04:41;56.71;51.98;64.77;;
73663;Laerm;61956;52.540;13.382;2023-04-03T03:07:10;58.16;51.07;64.03;;
73663;Laerm;61956;52.540;13.382;2023-04-03T03:09:39;59.55;51.60;68.24;;
73663;Laerm;61956;52.540;13.382;2023-04-03T03:12:08;59.51;50.63;65.61;;
73663;Laerm;61956;52.540;13.382;2023-04-03T03:14:38;59.32;50.20;68.36;;
73663;Laerm;61956;52.540;13.382;2023-04-03T03:17:11;58.07;49.90;66.27;;
73663;Laerm;61956;52.540;13.382;2023-04-03T03:19:40;59.15;49.55;68.49;;
73663;Laerm;61956;52.540;13.382;2023-04-03T03:22:09;59.21;49.85;68.31;;
73663;Laerm;61956;52.540;13.382;2023-04-03T03:24:39;59.03;50.35;66.51;;
73663;Laerm;61956;52.540;13.382;2023-04-03T03:27:09;59.50;49.39;66.42;;
73663;Laerm;61956;52.540;13.382;2023-04-03T03:29:38;59.44;52.38;65.26;;
73663;Laerm;61956;52.540;13.382;2023-04-03T03:32:07;59.59;50.17;70.09;;
73663;Laerm;61956;52.540;13.382;2023-04-03T03:34:39;59.24;49.51;68.01;;
73663;Laerm;61956;52.540;13.382;2023-04-03T03:37:08;58.62;49.28;67.88;;
73663;Laerm;61956;52.540;13.382;2023-04-03T03:39:37;58.52;49.69;66.11;;
73663;Laerm;61956;52.540;13.382;2023-04-03T03:42:06;53.69;49.17;65.36;;
73663;Laerm;61956;52.540;13.382;2023-04-03T03:44:36;53.84;49.50;71.41;;
73663;Laerm;61956;52.540;13.382;2023-04-03T03:47:05;54.86;49.43;66.60;;
73663;Laerm;61956;52.540;13.382;2023-04-03T03:49:40;56.16;49.30;66.89;;
73663;Laerm;61956;52.540;13.382;2023-04-03T03:52:09;57.01;49.55;67.76;;
73663;Laerm;61956;52.540;13.382;2023-04-03T03:54:38;58.35;49.94;69.01;;
73663;Laerm;61956;52.540;13.382;2023-04-03T03:57:08;57.70;49.85;67.99;;
73663;Laerm;61956;52.540;13.382;2023-04-03T03:59:37;57.90;49.88;68.53;;
73663;Laerm;61956;52.540;13.382;2023-04-03T04:02:08;56.56;52.95;66.29;;
73663;Laerm;61956;52.540;13.382;2023-04-03T04:04:40;57.56;53.07;64.00;;
73663;Laerm;61956;52.540;13.382;2023-04-03T04:07:09;57.47;52.58;65.28;;
73663;Laerm;61956;52.540;13.382;2023-04-03T04:09:39;57.37;52.77;65.75;;
73663;Laerm;61956;52.540;13.382;2023-04-03T04:12:09;56.82;50.20;64.79;;
73663;Laerm;61956;52.540;13.382;2023-04-03T04:14:38;57.40;53.10;64.48;;
73663;Laerm;61956;52.540;13.382;2023-04-03T04:17:09;57.52;53.29;63.67;;
73663;Laerm;61956;52.540;13.382;2023-04-03T04:19:41;56.92;53.09;64.23;;
73663;Laerm;61956;52.540;13.382;2023-04-03T04:22:10;55.64;52.76;59.16;;
73663;Laerm;61956;52.540;13.382;2023-04-03T04:24:39;55.42;52.43;58.87;;
73663;Laerm;61956;52.540;13.382;2023-04-03T04:27:09;55.68;52.38;64.61;;
73663;Laerm;61956;52.540;13.382;2023-04-03T04:29:38;55.79;52.27;62.04;;
73663;Laerm;61956;52.540;13.382;2023-04-03T04:32:08;55.62;52.06;58.75;;
73663;Laerm;61956;52.540;13.382;2023-04-03T04:34:40;56.21;51.67;65.41;;
73663;Laerm;61956;52.540;13.382;2023-04-03T04:37:09;56.32;52.84;63.56;;
73663;Laerm;61956;52.540;13.382;2023-04-03T04:39:39;56.10;50.48;70.05;;
73663;Laerm;61956;52.540;13.382;2023-04-03T04:42:09;57.26;52.93;72.31;;
73663;Laerm;61956;52.540;13.382;2023-04-03T04:47:09;58.87;56.72;66.06;;
73663;Laerm;61956;52.540;13.382;2023-04-03T04:49:42;59.12;56.06;65.05;;
73663;Laerm;61956;52.540;13.382;2023-04-03T04:52:14;58.60;55.19;63.85;;
73663;Laerm;61956;52.540;13.382;2023-04-03T04:54:43;58.24;50.48;63.92;;
73663;Laerm;61956;52.540;13.382;2023-04-03T04:57:12;57.65;51.10;64.54;;
73663;Laerm;61956;52.540;13.382;2023-04-03T04:59:42;57.74;50.72;65.06;;
73663;Laerm;61956;52.540;13.382;2023-04-03T05:02:11;57.63;51.56;66.17;;
73663;Laerm;61956;52.540;13.382;2023-04-03T05:04:45;58.77;52.67;68.20;;
73663;Laerm;61956;52.540;13.382;2023-04-03T05:07:20;57.00;53.17;67.80;;
73663;Laerm;61956;52.540;13.382;2023-04-03T05:09:49;57.26;53.13;64.97;;
73663;Laerm;61956;52.540;13.382;2023-04-03T05:12:19;58.87;53.15;68.57;;
73663;Laerm;61956;52.540;13.382;2023-04-03T05:14:54;58.48;53.46;68.45;;
73663;Laerm;61956;52.540;13.382;2023-04-03T05:17:24;58.81;51.83;67.34;;
73663;Laerm;61956;52.540;13.382;2023-04-03T05:19:59;59.03;50.86;67.59;;
73663;Laerm;61956;52.540;13.382;2023-04-03T05:22:29;59.12;51.61;66.32;;
73663;Laerm;61956;52.540;13.382;2023-04-03T05:25:06;57.83;51.85;67.48;;
73663;Laerm;61956;52.540;13.382;2023-04-03T05:27:35;57.56;52.70;67.33;;
73663;Laerm;61956;52.540;13.382;2023-04-03T05:30:07;57.74;53.16;61.27;;
73663;Laerm;61956;52.540;13.382;2023-04-03T05:32:38;58.20;54.20;62.96;;
73663;Laerm;61956;52.540;13.382;2023-04-03T05:35:19;58.48;54.63;66.91;;
73663;Laerm;61956;52.540;13.382;2023-04-03T05:37:51;58.15;54.22;61.05;;
73663;Laerm;61956;52.540;13.382;2023-04-03T05:40:21;58.30;54.73;65.65;;
73663;Laerm;61956;52.540;13.382;2023-04-03T05:42:53;60.52;51.48;66.69;;
73663;Laerm;61956;52.540;13.382;2023-04-03T05:45:25;60.10;51.84;66.40;;
73663;Laerm;61956;52.540;13.382;2023-04-03T05:47:54;59.42;50.62;67.19;;
73663;Laerm;61956;52.540;13.382;2023-04-03T05:50:26;59.52;51.31;66.71;;
73663;Laerm;61956;52.540;13.382;2023-04-03T05:52:57;60.13;51.98;68.14;;
73663;Laerm;61956;52.540;13.382;2023-04-03T05:55:29;59.64;55.99;67.21;;
73663;Laerm;61956;52.540;13.382;2023-04-03T05:57:59;59.39;55.68;66.01;;
73663;Laerm;61956;52.540;13.382;2023-04-03T06:00:28;59.52;53.63;65.43;;
73663;Laerm;61956;52.540;13.382;2023-04-03T06:03:01;58.45;50.95;67.35;;
73663;Laerm;61956;52.540;13.382;2023-04-03T06:05:33;58.63;51.79;67.11;;
73663;Laerm;61956;52.540;13.382;2023-04-03T06:08:03;59.27;52.14;68.87;;
73663;Laerm;61956;52.540;13.382;2023-04-03T06:10:32;59.52;54.33;65.42;;
73663;Laerm;61956;52.540;13.382;2023-04-03T06:13:02;58.43;53.66;66.82;;
73663;Laerm;61956;52.540;13.382;2023-04-03T06:15:32;58.73;51.57;68.94;;
73663;Laerm;61956;52.540;13.382;2023-04-03T06:18:01;58.92;53.99;67.15;;
73663;Laerm;61956;52.540;13.382;2023-04-03T06:20:33;58.35;53.87;65.70;;
73663;Laerm;61956;52.540;13.382;2023-04-03T06:23:02;58.78;54.75;68.79;;
73663;Laerm;61956;52.540;13.382;2023-04-03T06:25:32;58.18;54.79;65.47;;
73663;Laerm;61956;52.540;13.382;2023-04-03T06:28:01;58.29;53.60;60.50;;
73663;Laerm;61956;52.540;13.382;2023-04-03T06:30:30;60.75;52.38;67.68;;
73663;Laerm;61956;52.540;13.382;2023-04-03T06:32:59;62.22;55.66;76.21;;
73663;Laerm;61956;52.540;13.382;2023-04-03T06:35:28;66.10;52.89;77.60;;
73663;Laerm;61956;52.540;13.382;2023-04-03T06:38:00;65.38;54.92;71.66;;
73663;Laerm;61956;52.540;13.382;2023-04-03T06:40:33;64.28;55.27;70.30;;
73663;Laerm;61956;52.540;13.382;2023-04-03T06:43:03;61.12;51.07;69.89;;
73663;Laerm;61956;52.540;13.382;2023-04-03T06:45:32;61.94;51.93;71.28;;
73663;Laerm;61956;52.540;13.382;2023-04-03T06:48:02;61.84;51.77;68.14;;
73663;Laerm;61956;52.540;13.382;2023-04-03T06:50:32;60.08;54.76;72.08;;
73663;Laerm;61956;52.540;13.382;2023-04-03T06:53:03;66.73;53.92;72.69;;
73663;Laerm;61956;52.540;13.382;2023-04-03T06:55:33;68.35;53.49;73.84;;
73663;Laerm;61956;52.540;13.382;2023-04-03T06:58:03;67.91;53.55;72.83;;
73663;Laerm;61956;52.540;13.382;2023-04-03T07:00:33;64.55;53.21;72.54;;
73663;Laerm;61956;52.540;13.382;2023-04-03T07:03:02;60.61;54.31;72.52;;
73663;Laerm;61956;52.540;13.382;2023-04-03T07:05:31;66.57;54.41;73.57;;
73663;Laerm;61956;52.540;13.382;2023-04-03T07:08:03;63.90;53.24;72.52;;
73663;Laerm;61956;52.540;13.382;2023-04-03T07:10:33;61.62;53.66;69.42;;
73663;Laerm;61956;52.540;13.382;2023-04-03T07:13:02;68.25;53.96;72.57;;
73663;Laerm;61956;52.540;13.382;2023-04-03T07:15:31;67.71;54.10;73.04;;
73663;Laerm;61956;52.540;13.382;2023-04-03T07:18:02;68.46;54.82;73.23;;
73663;Laerm;61956;52.540;13.382;2023-04-03T07:20:32;64.04;53.52;73.01;;
73663;Laerm;61956;52.540;13.382;2023-04-03T07:23:04;67.25;52.96;72.71;;
73663;Laerm;61956;52.540;13.382;2023-04-03T07:25:33;68.07;52.58;72.46;;
73663;Laerm;61956;52.540;13.382;2023-04-03T07:28:02;68.77;54.59;78.91;;
73663;Laerm;61956;52.540;13.382;2023-04-03T07:30:31;67.78;54.61;72.24;;
73663;Laerm;61956;52.540;13.382;2023-04-03T07:33:01;66.94;53.82;72.06;;
73663;Laerm;61956;52.540;13.382;2023-04-03T07:35:30;67.81;53.71;72.32;;
73663;Laerm;61956;52.540;13.382;2023-04-03T07:37:59;68.42;52.83;74.10;;
73663;Laerm;61956;52.540;13.382;2023-04-03T07:40:31;68.37;54.37;74.53;;
73663;Laerm;61956;52.540;13.382;2023-04-03T07:43:01;66.63;54.36;71.78;;
73663;Laerm;61956;52.540;13.382;2023-04-03T07:45:30;68.32;54.56;72.07;;
73663;Laerm;61956;52.540;13.382;2023-04-03T07:47:59;66.01;54.79;73.47;;
73663;Laerm;61956;52.540;13.382;2023-04-03T07:50:29;69.08;53.70;73.08;;
73663;Laerm;61956;52.540;13.382;2023-04-03T07:52:59;67.79;55.51;72.15;;
73663;Laerm;61956;52.540;13.382;2023-04-03T07:55:32;68.41;54.81;73.89;;
73663;Laerm;61956;52.540;13.382;2023-04-03T07:58:06;67.67;55.27;74.34;;
73663;Laerm;61956;52.540;13.382;2023-04-03T08:00:35;67.42;55.30;73.08;;
73663;Laerm;61956;52.540;13.382;2023-04-03T08:05:37;62.68;52.54;67.08;;
73663;Laerm;61956;52.540;13.382;2023-04-03T08:08:07;63.36;58.22;70.80;;
73663;Laerm;61956;52.540;13.382;2023-04-03T08:10:40;62.59;52.17;67.98;;
73663;Laerm;61956;52.540;13.382;2023-04-03T08:13:10;62.43;51.01;76.61;;
73663;Laerm;61956;52.540;13.382;2023-04-03T08:15:39;64.77;51.16;78.44;;
73663;Laerm;61956;52.540;13.382;2023-04-03T08:18:08;63.38;51.95;74.56;;
73663;Laerm;61956;52.540;13.382;2023-04-03T08:20:39;63.96;52.12;78.04;;
73663;Laerm;61956;52.540;13.382;2023-04-03T08:23:09;65.38;52.21;78.96;;
73663;Laerm;61956;52.540;13.382;2023-04-03T08:25:41;65.03;51.94;78.81;;
73663;Laerm;61956;52.540;13.382;2023-04-03T08:28:12;62.89;58.28;77.14;;
73663;Laerm;61956;52.540;13.382;2023-04-03T08:30:42;62.65;57.65;67.04;;
73663;Laerm;61956;52.540;13.382;2023-04-03T08:33:12;62.97;53.27;69.35;;
73663;Laerm;61956;52.540;13.382;2023-04-03T08:35:42;63.29;52.53;77.70;;
73663;Laerm;61956;52.540;13.382;2023-04-03T08:38:11;62.63;51.64;74.60;;
73663;Laerm;61956;52.540;13.382;2023-04-03T08:40:43;62.66;52.39;74.09;;
73663;Laerm;61956;52.540;13.382;2023-04-03T08:43:36;62.52;50.86;72.85;;
73663;Laerm;61956;52.540;13.382;2023-04-03T08:46:14;62.62;53.66;70.21;;
73663;Laerm;61956;52.540;13.382;2023-04-03T08:48:46;62.46;50.45;67.94;;
73663;Laerm;61956;52.540;13.382;2023-04-03T08:51:20;62.32;51.28;71.10;;
73663;Laerm;61956;52.540;13.382;2023-04-03T08:53:59;62.44;51.65;73.56;;
73663;Laerm;61956;52.540;13.382;2023-04-03T08:56:33;62.35;52.49;72.77;;
73663;Laerm;61956;52.540;13.382;2023-04-03T08:59:10;61.75;51.09;66.44;;
73663;Laerm;61956;52.540;13.382;2023-04-03T09:01:41;58.86;50.38;66.75;;
73663;Laerm;61956;52.540;13.382;2023-04-03T09:04:14;62.41;51.64;70.56;;
73663;Laerm;61956;52.540;13.382;2023-04-03T09:06:50;57.48;51.95;69.82;;
73663;Laerm;61956;52.540;13.382;2023-04-03T09:09:32;56.39;51.88;68.05;;
73663;Laerm;61956;52.540;13.382;2023-04-03T09:12:17;61.51;52.52;70.91;;
73663;Laerm;61956;52.540;13.382;2023-04-03T09:15:00;60.82;52.52;70.01;;
73663;Laerm;61956;52.540;13.382;2023-04-03T09:17:41;63.78;51.74;71.05;;
73663;Laerm;61956;52.540;13.382;2023-04-03T09:20:21;59.69;52.47;69.66;;
73663;Laerm;61956;52.540;13.382;2023-04-03T09:22:55;56.52;53.44;68.54;;
73663;Laerm;61956;52.540;13.382;2023-04-03T09:25:28;56.42;53.73;63.64;;
73663;Laerm;61956;52.540;13.382;2023-04-03T09:28:02;56.21;53.59;61.16;;
73663;Laerm;61956;52.540;13.382;2023-04-03T09:30:36;56.13;53.19;60.63;;
73663;Laerm;61956;52.540;13.382;2023-04-03T09:33:08;56.29;53.22;62.81;;
73663;Laerm;61956;52.540;13.382;2023-04-03T09:35:41;56.59;53.75;64.98;;
73663;Laerm;61956;52.540;13.382;2023-04-03T09:38:20;57.91;53.19;69.50;;
73663;Laerm;61956;52.540;13.382;2023-04-03T09:41:03;59.90;53.22;69.43;;
73663;Laerm;61956;52.540;13.382;2023-04-03T09:43:37;56.65;53.32;60.98;;
73663;Laerm;61956;52.540;13.382;2023-04-03T09:46:25;58.86;52.83;69.72;;
73663;Laerm;61956;52.540;13.382;2023-04-03T09:49:00;60.44;53.24;73.52;;
73663;Laerm;61956;52.540;13.382;2023-04-03T09:51:30;64.99;56.01;71.75;;
73663;Laerm;61956;52.540;13.382;2023-04-03T09:54:00;64.50;53.43;70.56;;
73663;Laerm;61956;52.540;13.382;2023-04-03T09:56:30;58.64;53.63;69.38;;
73663;Laerm;61956;52.540;13.382;2023-04-03T09:59:15;63.62;53.41;70.39;;
73663;Laerm;61956;52.540;13.382;2023-04-03T10:01:59;63.36;53.61;70.14;;
73663;Laerm;61956;52.540;13.382;2023-04-03T10:04:39;57.19;53.73;69.51;;
73663;Laerm;61956;52.540;13.382;2023-04-03T10:07:29;56.29;53.65;62.08;;
73663;Laerm;61956;52.540;13.382;2023-04-03T10:10:02;56.60;53.82;63.17;;
73663;Laerm;61956;52.540;13.382;2023-04-03T10:12:32;58.18;53.50;81.59;;
73663;Laerm;61956;52.540;13.382;2023-04-03T10:15:14;64.59;53.64;81.25;;
73663;Laerm;61956;52.540;13.382;2023-04-03T10:17:54;65.13;60.00;84.15;;
73663;Laerm;61956;52.540;13.382;2023-04-03T10:20:34;64.44;59.71;69.84;;
73663;Laerm;61956;52.540;13.382;2023-04-03T10:23:18;64.45;59.48;73.76;;
73663;Laerm;61956;52.540;13.382;2023-04-03T10:26:02;64.48;59.19;71.80;;
73663;Laerm;61956;52.540;13.382;2023-04-03T10:28:46;64.32;52.67;72.46;;
73663;Laerm;61956;52.540;13.382;2023-04-03T10:31:26;63.87;52.36;69.81;;
73663;Laerm;61956;52.540;13.382;2023-04-03T10:34:04;64.03;58.95;69.35;;
73663;Laerm;61956;52.540;13.382;2023-04-03T10:36:42;64.12;59.08;69.54;;
73663;Laerm;61956;52.540;13.382;2023-04-03T10:39:23;64.00;58.61;69.09;;
73663;Laerm;61956;52.540;13.382;2023-04-03T10:42:08;63.66;58.51;69.35;;
73663;Laerm;61956;52.540;13.382;2023-04-03T10:44:55;63.31;58.56;69.88;;
73663;Laerm;61956;52.540;13.382;2023-04-03T10:47:39;63.48;58.61;68.79;;
73663;Laerm;61956;52.540;13.382;2023-04-03T10:50:27;63.32;52.16;68.88;;
73663;Laerm;61956;52.540;13.382;2023-04-03T10:53:04;63.21;58.48;68.74;;
73663;Laerm;61956;52.540;13.382;2023-04-03T10:55:43;63.26;58.24;68.40;;
73663;Laerm;61956;52.540;13.382;2023-04-03T10:58:21;63.26;58.24;68.40;;
73663;Laerm;61956;52.540;13.382;2023-04-03T11:00:57;62.98;58.23;67.92;;
73663;Laerm;61956;52.540;13.382;2023-04-03T11:03:36;62.94;58.38;67.75;;
73663;Laerm;61956;52.540;13.382;2023-04-03T11:06:10;62.90;58.25;68.09;;
73663;Laerm;61956;52.540;13.382;2023-04-03T11:08:46;62.86;58.21;67.67;;
73663;Laerm;61956;52.540;13.382;2023-04-03T11:11:25;62.89;57.98;67.05;;
73663;Laerm;61956;52.540;13.382;2023-04-03T11:14:01;62.83;58.09;67.19;;
73663;Laerm;61956;52.540;13.382;2023-04-03T11:16:40;62.71;58.02;66.90;;
73663;Laerm;61956;52.540;13.382;2023-04-03T11:19:19;62.70;52.79;67.20;;
73663;Laerm;61956;52.540;13.382;2023-04-03T11:21:56;62.70;58.02;67.21;;
73663;Laerm;61956;52.540;13.382;2023-04-03T11:24:31;62.62;57.81;66.68;;
73663;Laerm;61956;52.540;13.382;2023-04-03T11:27:04;62.73;58.11;66.99;;
73663;Laerm;61956;52.540;13.382;2023-04-03T11:29:38;62.48;57.85;66.75;;
73663;Laerm;61956;52.540;13.382;2023-04-03T11:35:01;61.86;54.03;66.25;;
73663;Laerm;61956;52.540;13.382;2023-04-03T11:37:36;61.97;57.39;73.33;;
73663;Laerm;61956;52.540;13.382;2023-04-03T11:40:22;62.65;57.83;77.11;;
73663;Laerm;61956;52.540;13.382;2023-04-03T11:42:55;62.22;57.95;75.39;;
73663;Laerm;61956;52.540;13.382;2023-04-03T11:45:40;62.23;57.87;74.09;;
73663;Laerm;61956;52.540;13.382;2023-04-03T11:48:49;62.20;53.45;76.27;;
73663;Laerm;61956;52.540;13.382;2023-04-03T11:51:54;62.78;58.03;77.51;;
73663;Laerm;61956;52.540;13.382;2023-04-03T11:54:46;62.17;57.90;71.84;;
73663;Laerm;61956;52.540;13.382;2023-04-03T11:58:04;62.23;57.56;66.34;;
73663;Laerm;61956;52.540;13.382;2023-04-03T12:00:57;62.22;57.96;66.83;;
73663;Laerm;61956;52.540;13.382;2023-04-03T12:04:09;62.20;58.20;66.84;;
73663;Laerm;61956;52.540;13.382;2023-04-03T12:07:18;62.19;58.12;66.17;;
73663;Laerm;61956;52.540;13.382;2023-04-03T12:09:59;62.34;57.96;67.54;;
73663;Laerm;61956;52.540;13.382;2023-04-03T12:12:39;62.24;57.85;67.13;;
73663;Laerm;61956;52.540;13.382;2023-04-03T12:15:22;63.18;58.06;77.61;;
73663;Laerm;61956;52.540;13.382;2023-04-03T12:17:52;62.11;57.66;66.35;;
73663;Laerm;61956;52.540;13.382;2023-04-03T12:20:58;62.24;58.06;66.11;;
73663;Laerm;61956;52.540;13.382;2023-04-03T12:23:34;61.90;57.91;65.79;;
73663;Laerm;61956;52.540;13.382;2023-04-03T12:26:20;61.97;57.74;72.08;;
73663;Laerm;61956;52.540;13.382;2023-04-03T12:28:53;62.11;57.85;66.43;;
73663;Laerm;61956;52.540;13.382;2023-04-03T12:31:35;62.07;57.98;65.90;;
73663;Laerm;61956;52.540;13.382;2023-04-03T12:34:26;61.97;57.72;65.59;;
73663;Laerm;61956;52.540;13.382;2023-04-03T12:37:06;61.87;57.78;66.57;;
73663;Laerm;61956;52.540;13.382;2023-04-03T12:39:53;61.82;57.94;66.21;;
73663;Laerm;61956;52.540;13.382;2023-04-03T12:42:45;62.00;57.89;66.51;;
73663;Laerm;61956;52.540;13.382;2023-04-03T12:45:24;61.84;57.79;65.94;;
73663;Laerm;61956;52.540;13.382;2023-04-03T12:47:56;61.85;57.78;65.72;;
73663;Laerm;61956;52.540;13.382;2023-04-03T12:50:31;62.05;57.97;66.33;;
73663;Laerm;61956;52.540;13.382;2023-04-03T12:53:05;61.75;57.66;66.19;;
73663;Laerm;61956;52.540;13.382;2023-04-03T12:55:38;61.91;57.95;66.58;;
73663;Laerm;61956;52.540;13.382;2023-04-03T12:58:16;61.83;57.71;66.10;;
73663;Laerm;61956;52.540;13.382;2023-04-03T13:00:46;62.32;57.85;72.95;;
73663;Laerm;61956;52.540;13.382;2023-04-03T13:03:24;62.11;53.70;72.89;;
73663;Laerm;61956;52.540;13.382;2023-04-03T13:05:57;61.82;57.83;65.83;;
73663;Laerm;61956;52.540;13.382;2023-04-03T13:08:28;61.89;57.77;66.38;;
73663;Laerm;61956;52.540;13.382;2023-04-03T13:11:05;61.92;57.59;67.42;;
73663;Laerm;61956;52.540;13.382;2023-04-03T13:13:36;61.99;57.90;66.15;;
73663;Laerm;61956;52.540;13.382;2023-04-03T13:16:09;62.09;58.21;67.22;;
73663;Laerm;61956;52.540;13.382;2023-04-03T13:18:40;61.97;58.01;67.26;;
73663;Laerm;61956;52.540;13.382;2023-04-03T13:21:17;60.86;52.03;72.35;;
73663;Laerm;61956;52.540;13.382;2023-04-03T13:23:51;58.00;52.54;71.06;;
73663;Laerm;61956;52.540;13.382;2023-04-03T13:26:30;57.81;52.52;62.36;;
73663;Laerm;61956;52.540;13.382;2023-04-03T13:29:05;57.43;52.07;67.53;;
73663;Laerm;61956;52.540;13.382;2023-04-03T13:31:40;60.42;51.66;69.65;;
73663;Laerm;61956;52.540;13.382;2023-04-03T13:34:13;59.94;51.52;66.01;;
73663;Laerm;61956;52.540;13.382;2023-04-03T13:36:57;56.14;51.87;64.40;;
73663;Laerm;61956;52.540;13.382;2023-04-03T13:39:30;58.95;52.05;71.36;;
73663;Laerm;61956;52.540;13.382;2023-04-03T13:42:17;61.65;52.64;67.17;;
73663;Laerm;61956;52.540;13.382;2023-04-03T13:45:21;61.69;57.40;65.53;;
73663;Laerm;61956;52.540;13.382;2023-04-03T13:47:54;61.70;54.37;74.41;;
73663;Laerm;61956;52.540;13.382;2023-04-03T13:50:53;61.78;57.59;66.02;;
73663;Laerm;61956;52.540;13.382;2023-04-03T13:53:23;61.71;57.71;65.79;;
73663;Laerm;61956;52.540;13.382;2023-04-03T13:56:05;61.75;57.88;65.71;;
73663;Laerm;61956;52.540;13.382;2023-04-03T13:58:37;61.72;57.76;65.89;;
73663;Laerm;61956;52.540;13.382;2023-04-03T14:01:11;61.75;57.33;66.14;;
73663;Laerm;61956;52.540;13.382;2023-04-03T14:03:54;61.81;57.91;65.92;;
73663;Laerm;61956;52.540;13.382;2023-04-03T14:06:24;61.61;57.70;65.80;;
73663;Laerm;61956;52.540;13.382;2023-04-03T14:08:54;61.76;57.66;66.04;;
73663;Laerm;61956;52.540;13.382;2023-04-03T14:11:28;62.00;57.66;66.07;;
73663;Laerm;61956;52.540;13.382;2023-04-03T14:14:06;61.87;57.74;73.75;;
73663;Laerm;61956;52.540;13.382;2023-04-03T14:16:43;61.73;57.88;66.56;;
73663;Laerm;61956;52.540;13.382;2023-04-03T14:19:21;61.77;57.93;69.03;;
73663;Laerm;61956;52.540;13.382;2023-04-03T14:21:52;61.67;57.84;66.78;;
73663;Laerm;61956;52.540;13.382;2023-04-03T14:24:23;61.71;57.95;65.58;;